world map with CEG marked

CEG - Airport

This information may not be accurate or current and is not valid for navigation or flight planning. No warranty of fitness for any purpose is made or implied.

flag of Englandflag of United Kingdom

Donate via PayPal

Additional information is available on the NEW Great Circle Mapper

Location
City:  Chester, Flintshire, England, United Kingdom
Near (Alt.):Broughton
Name:Hawarden Airport
ICAO / IATA:EGNR / CEG

Details
Type:Airport (Aerodrome, Airfield)
Use:Public/Civil
Latitude:53°10'41"N (53.178056)
Longitude:2°58'40"W (-2.977777)
Datum:WGS 1984
Elevation:45 ft (14 m)
Runways:1
Longest:6702 × 148 ft (2043 × 45 m)

Time
Timezone:UTC+0 (DST+3)
Local Time:

Weather
METAR:EGNR  041350Z 31011KT 270V330 9999 FEW018 SCT027 10/03 Q1016
TAF:EGNR  (expired)

Related Locations
Nearby:
Farthest:NZBA: 11854 mi / 19077 km
Balclutha, OTA, NZ

Find:

   beyond  
but within

Other Information
Maps:
Links:
Sources:

  


 


Great Circle Mapper   Great Circle Mapper
Great Circle Mapper FAQ   Great Circle Mapper FAQ
  Karl's Home Page
KLSē   KLSē Home
   GC on Facebook
Airlines of the World   Airlines of the World
Donate via PayPal


Copyright © 2004-2019, Karl L. Swartz. All rights reserved.
All trademarks mentioned herein belong to their respective owners.

Please see credits for attribution and copyright information.

Karl Swartz <karl@kls2.com>
  Powered by FreeBSD
Valid HTML 4.01!
Labeled with ICRA
hCard Microformat
Geo Microformat